.

.

.

.

.

.

.

.

.

.

.

Welcome to SeaHawk Aviation!

 

We are a full-service aircraft maintenance facility located just off of Taxiway November at the Wilmington International Airport (KILM) in NC. We specialize in aircraft maintenance, aviation parts and supplies, insurance, flight training, and much more.

Our A&P mechanics have 30 years of combined experience that comes from a combination of Air Force, Marine Corp, and general aviation maintenance. Our A&P IA has 40 years of experience with 19,000 hours of flight time serving as a corporate pilot and mechanic on Falcon 500s and Lear 45s. Our maintenance experience ranges from experimental and fixed wing reciprocating aircraft to turbine powered jets and helicopters. With the ever-growing aviation traffic in the region, we always look forward to welcoming new customers. We strive to provide excellent customer service and aircraft knowledge, regardless of the type of aircraft our customer may fly!

SeaHawk Aviation, Inc.


We are a full-service aircraft maintenance facility located off of Taxiway November at Wilmington International Airport (KILM) in NC.


1501 John Morris Rd.
Wilmington, NC 28405


(910) 859-8877


TAF YSSY 181639Z 1818/1924 30008KT 9999 FEW010 FM182100 02010KT 9999 FEW020 FM190200 03020G30KT CAVOK FM191000 01015KT CAVOK FM191400 29008KT CAVOK RMK T 23 24 30 33 Q 1008 1009 1007 1004

TTF METAR YSSY 182030Z 11002KT 9999 FEW008 BKN190 23/22 Q1009 RMK RF00.0/000.0 HZ NOSIG


Contact Us!

13 + 1 =